createdAt,value
2019-06-07T00:02:01.213Z,30.67
2019-06-07T00:04:31.959Z,32.73
2019-06-07T00:07:02.748Z,28.43
2019-06-07T00:09:33.650Z,31.17
2019-06-07T00:12:04.842Z,31.97
2019-06-07T00:14:34.975Z,31.70
2019-06-07T00:17:05.526Z,35.37
2019-06-07T00:19:36.356Z,31.77
2019-06-07T00:22:16.497Z,31.33
2019-06-07T00:24:39.338Z,27.13
2019-06-07T00:27:11.616Z,30.83
2019-06-07T00:29:42.840Z,34.83
2019-06-07T00:32:15.010Z,34.27
2019-06-07T00:34:45.698Z,39.67
2019-06-07T00:37:19.758Z,38.57
2019-06-07T00:40:12.684Z,37.37
2019-06-07T00:42:23.967Z,39.13
2019-06-07T00:44:53.266Z,46.53
2019-06-07T00:47:25.526Z,37.37
2019-06-07T00:49:55.545Z,44.30
2019-06-07T00:54:57.896Z,38.40
2019-06-07T00:57:28.381Z,42.97
2019-06-07T00:59:59.230Z,44.47
2019-06-07T01:02:31.584Z,45.43
2019-06-07T01:05:01.759Z,47.67
2019-06-07T01:07:33.928Z,52.93
2019-06-07T01:10:03.775Z,54.07
2019-06-07T01:12:33.754Z,49.27
2019-06-07T01:15:04.716Z,45.27
2019-06-07T01:17:49.979Z,41.53
2019-06-07T01:20:08.273Z,39.23
2019-06-07T01:22:38.971Z,38.97
2019-06-07T01:25:09.403Z,40.00
2019-06-07T01:27:40.304Z,40.40
2019-06-07T01:30:10.487Z,44.13
2019-06-07T01:32:40.684Z,45.30
2019-06-07T01:35:11.634Z,47.13
2019-06-07T01:37:42.134Z,42.27
2019-06-07T01:40:13.965Z,49.37
2019-06-07T01:42:44.167Z,39.60
2019-06-07T01:45:19.464Z,45.10
2019-06-07T01:47:49.477Z,43.57
2019-06-07T01:50:22.595Z,43.27
2019-06-07T01:52:51.664Z,47.53
2019-06-07T01:55:24.942Z,43.27
2019-06-07T01:57:54.016Z,46.30
2019-06-07T02:00:47.939Z,42.10
2019-06-07T02:03:21.395Z,46.00
2019-06-07T02:05:51.125Z,47.00
2019-06-07T02:08:22.210Z,44.50
2019-06-07T02:10:53.731Z,46.53
2019-06-07T02:13:27.829Z,42.37
2019-06-07T02:15:56.982Z,43.77
2019-06-07T02:18:29.122Z,42.13
2019-06-07T02:20:59.201Z,41.60
2019-06-07T02:23:33.065Z,52.37
2019-06-07T02:26:01.529Z,43.73
2019-06-07T02:28:44.727Z,51.93
2019-06-07T02:31:04.728Z,49.70
2019-06-07T02:33:40.160Z,53.83
2019-06-07T02:36:07.562Z,42.77
2019-06-07T02:38:38.384Z,52.23
2019-06-07T02:41:09.500Z,46.00
2019-06-07T02:43:39.960Z,46.90
2019-06-07T02:46:31.946Z,56.27
2019-06-07T02:48:55.955Z,52.90
2019-06-07T02:51:32.637Z,48.40
2019-06-07T02:53:59.175Z,55.53
2019-06-07T02:56:55.621Z,56.00
2019-06-07T02:59:01.652Z,44.53
2019-06-07T03:01:38.548Z,50.83
2019-06-07T03:04:05.458Z,53.07
2019-06-07T03:06:40.456Z,57.87
2019-06-07T03:09:08.816Z,56.17
2019-06-07T03:11:42.122Z,60.80
2019-06-07T03:14:13.747Z,63.70
2019-06-07T03:16:52.997Z,66.93
2019-06-07T03:19:31.374Z,65.20
2019-06-07T03:22:04.759Z,57.43
2019-06-07T03:24:41.271Z,54.27
2019-06-07T03:27:34.107Z,65.43
2019-06-07T03:29:42.178Z,53.87
2019-06-07T03:32:13.123Z,54.23
2019-06-07T03:34:44.141Z,49.83
2019-06-07T03:37:15.066Z,60.43
2019-06-07T03:39:45.507Z,56.87
2019-06-07T03:42:16.059Z,67.87
2019-06-07T03:44:45.869Z,53.53
2019-06-07T03:47:16.422Z,60.53
2019-06-07T03:49:47.690Z,61.47
2019-06-07T03:52:18.666Z,58.60
2019-06-07T03:54:49.633Z,46.87
2019-06-07T03:57:21.789Z,47.33
2019-06-07T03:59:52.327Z,39.87
2019-06-07T04:02:22.128Z,42.73
2019-06-07T04:04:52.717Z,30.40
2019-06-07T04:07:23.919Z,27.23
2019-06-07T04:09:57.125Z,30.90
2019-06-07T04:12:28.550Z,29.33
2019-06-07T04:15:00.323Z,27.00
2019-06-07T04:17:32.701Z,30.23
2019-06-07T04:20:03.507Z,28.73
2019-06-07T04:22:38.869Z,25.43
2019-06-07T04:25:08.967Z,24.77
2019-06-07T04:27:41.046Z,28.60
2019-06-07T04:30:13.808Z,27.80
2019-06-07T04:32:44.978Z,27.67
2019-06-07T04:35:15.713Z,27.37
2019-06-07T04:37:46.909Z,26.53
2019-06-07T04:40:17.679Z,25.33
2019-06-07T04:42:48.959Z,23.37
2019-06-07T04:45:33.765Z,23.50
2019-06-07T04:47:51.325Z,26.60
2019-06-07T04:50:21.227Z,23.37
2019-06-07T04:52:51.189Z,16.73
2019-06-07T04:55:20.995Z,21.50
2019-06-07T04:57:51.050Z,17.33
2019-06-07T05:00:48.676Z,19.33
2019-06-07T05:02:55.321Z,21.63
2019-06-07T05:05:26.210Z,20.40
2019-06-07T05:07:56.859Z,17.67
2019-06-07T05:10:27.887Z,19.57
2019-06-07T05:12:58.863Z,18.73
2019-06-07T05:15:29.789Z,31.57
2019-06-07T05:18:00.389Z,13.60
2019-06-07T05:20:30.229Z,16.20
2019-06-07T05:23:00.964Z,14.63
2019-06-07T05:25:33.585Z,17.97
2019-06-07T05:28:04.383Z,25.77
2019-06-07T05:31:07.839Z,20.77
2019-06-07T05:33:13.362Z,16.10
2019-06-07T05:35:44.449Z,25.90
2019-06-07T05:38:15.585Z,22.97
2019-06-07T05:40:48.531Z,18.07
2019-06-07T05:43:26.615Z,22.13
2019-06-07T05:45:57.531Z,19.20
2019-06-07T05:48:27.438Z,21.00
2019-06-07T05:50:58.226Z,25.17
2019-06-07T05:53:28.399Z,22.10
2019-06-07T05:55:58.497Z,21.23
2019-06-07T05:58:29.299Z,21.07
2019-06-07T06:01:41.057Z,24.10
2019-06-07T06:03:35.049Z,17.27
2019-06-07T06:06:05.884Z,21.53
2019-06-07T06:08:39.236Z,26.87
2019-06-07T06:11:08.460Z,29.37
2019-06-07T06:14:04.673Z,18.20
2019-06-07T06:16:10.982Z,18.43
2019-06-07T06:18:44.326Z,14.07
2019-06-07T06:21:19.653Z,18.83
2019-06-07T06:23:50.748Z,20.70
2019-06-07T06:26:20.762Z,23.07
2019-06-07T06:28:51.623Z,17.20
2019-06-07T06:31:22.398Z,17.87
2019-06-07T06:33:52.957Z,16.53
2019-06-07T06:36:23.696Z,17.03
2019-06-07T06:38:55.578Z,19.40
2019-06-07T06:41:27.800Z,16.93
2019-06-07T06:43:57.748Z,20.27
2019-06-07T06:46:38.580Z,15.90
2019-06-07T06:49:00.552Z,18.40
2019-06-07T06:51:31.564Z,14.37
2019-06-07T06:54:02.435Z,18.40
2019-06-07T06:56:39.685Z,17.07
2019-06-07T06:59:37.124Z,16.87
2019-06-07T07:01:44.888Z,20.57
2019-06-07T07:04:15.659Z,21.30
2019-06-07T07:06:48.029Z,25.10
2019-06-07T07:09:19.024Z,18.00
2019-06-07T07:12:06.344Z,14.40
2019-06-07T07:14:22.764Z,17.03
2019-06-07T07:16:56.021Z,15.10
2019-06-07T07:19:25.181Z,18.90
2019-06-07T07:21:55.591Z,14.37
2019-06-07T07:24:25.453Z,15.83
2019-06-07T07:26:58.540Z,16.30
2019-06-07T07:29:29.015Z,15.83
2019-06-07T07:31:59.684Z,17.50
2019-06-07T07:34:35.516Z,14.07
2019-06-07T07:37:03.174Z,19.00
2019-06-07T07:39:33.854Z,13.83
2019-06-07T07:42:20.052Z,13.93
2019-06-07T07:44:37.891Z,16.00
2019-06-07T07:47:09.792Z,16.10
2019-06-07T07:49:40.547Z,17.43
2019-06-07T07:52:11.103Z,12.13
2019-06-07T07:54:41.224Z,16.03
2019-06-07T07:57:11.730Z,15.23
2019-06-07T08:00:00.487Z,17.70
2019-06-07T08:02:15.394Z,16.97
2019-06-07T08:05:20.651Z,18.07
2019-06-07T08:07:17.929Z,14.93
2019-06-07T08:09:50.511Z,11.80
2019-06-07T08:12:19.633Z,14.40
2019-06-07T08:14:51.102Z,10.07
2019-06-07T08:17:20.964Z,16.17
2019-06-07T08:19:52.315Z,11.40
2019-06-07T08:22:24.124Z,12.67
2019-06-07T08:24:56.003Z,13.63
2019-06-07T08:27:27.119Z,12.90
2019-06-07T08:30:15.778Z,15.47
2019-06-07T08:32:31.551Z,11.07
2019-06-07T08:35:06.512Z,9.40
2019-06-07T08:38:14.027Z,9.57
2019-06-07T08:40:09.104Z,9.67
2019-06-07T08:42:59.773Z,17.00
2019-06-07T08:45:16.694Z,10.13
2019-06-07T08:47:47.020Z,16.73
2019-06-07T08:50:20.596Z,14.43
2019-06-07T08:52:54.802Z,12.57
